createdAt,value
2022-08-28T00:01:39.767Z,19.52
2022-08-28T00:04:06.856Z,19.52
2022-08-28T00:06:33.725Z,19.45
2022-08-28T00:09:00.547Z,19.50
2022-08-28T00:11:27.378Z,19.52
2022-08-28T00:13:54.146Z,19.58
2022-08-28T00:16:23.665Z,19.65
2022-08-28T00:18:53.551Z,19.64
2022-08-28T00:21:20.440Z,19.76
2022-08-28T00:23:47.179Z,19.68
2022-08-28T00:26:15.243Z,19.66
2022-08-28T00:28:42.007Z,19.72
2022-08-28T00:31:08.859Z,19.85
2022-08-28T00:33:35.630Z,19.84
2022-08-28T00:36:04.172Z,19.84
2022-08-28T00:38:31.482Z,19.81
2022-08-28T00:41:01.754Z,19.82
2022-08-28T00:43:45.574Z,19.87
2022-08-28T00:46:20.242Z,19.79
2022-08-28T00:48:48.035Z,19.66
2022-08-28T00:51:18.424Z,19.60
2022-08-28T00:53:45.302Z,19.55
2022-08-28T00:56:14.816Z,19.44
2022-08-28T00:58:44.814Z,19.40
2022-08-28T01:01:13.637Z,19.38
2022-08-28T01:03:43.235Z,19.38
2022-08-28T01:06:11.505Z,19.35
2022-08-28T01:08:40.905Z,19.35
2022-08-28T01:11:09.158Z,19.36
2022-08-28T01:13:39.487Z,19.29
2022-08-28T01:16:08.092Z,19.37
2022-08-28T01:18:35.693Z,19.44
2022-08-28T01:21:20.125Z,19.42
2022-08-28T01:23:57.779Z,19.39
2022-08-28T01:26:27.155Z,19.37
2022-08-28T01:28:55.961Z,19.42
2022-08-28T01:31:22.880Z,19.53
2022-08-28T01:33:49.740Z,19.61
2022-08-28T01:36:17.608Z,19.74
2022-08-28T01:38:49.878Z,19.77
2022-08-28T01:41:19.850Z,19.68
2022-08-28T01:43:46.649Z,19.65
2022-08-28T01:46:13.556Z,19.63
2022-08-28T01:48:43.478Z,19.58
2022-08-28T01:51:12.008Z,19.57
2022-08-28T01:53:39.804Z,19.57
2022-08-28T01:56:13.921Z,19.52
2022-08-28T01:58:41.242Z,19.46
2022-08-28T02:01:18.569Z,19.38
2022-08-28T02:03:45.916Z,19.31
2022-08-28T02:06:14.390Z,19.24
2022-08-28T02:08:41.843Z,19.13
2022-08-28T02:11:09.099Z,19.07
2022-08-28T02:13:37.595Z,19.05
2022-08-28T02:16:07.498Z,19.03
2022-08-28T02:18:34.904Z,18.97
2022-08-28T02:21:01.685Z,18.94
2022-08-28T02:23:28.468Z,18.89
2022-08-28T02:25:55.278Z,18.84
2022-08-28T02:28:22.129Z,18.80
2022-08-28T02:30:48.924Z,18.81
2022-08-28T02:33:15.796Z,18.79
2022-08-28T02:35:42.911Z,18.80
2022-08-28T02:38:10.077Z,18.80
2022-08-28T02:40:37.467Z,18.82
2022-08-28T02:43:05.628Z,18.85
2022-08-28T02:45:32.541Z,18.90
2022-08-28T02:48:00.007Z,18.96
2022-08-28T02:50:26.940Z,18.95
2022-08-28T02:52:53.727Z,18.89
2022-08-28T02:55:21.188Z,18.90
2022-08-28T02:57:48.473Z,18.86
2022-08-28T03:00:20.451Z,18.89
2022-08-28T03:02:48.527Z,18.96
2022-08-28T03:05:19.971Z,19.01
2022-08-28T03:07:47.733Z,19.10
2022-08-28T03:10:14.825Z,19.23
2022-08-28T03:12:42.897Z,19.29
2022-08-28T03:15:09.994Z,19.30
2022-08-28T03:17:37.665Z,19.30
2022-08-28T03:20:07.041Z,19.29
2022-08-28T03:22:33.843Z,19.36
2022-08-28T03:25:00.715Z,19.37
2022-08-28T03:27:27.445Z,19.36
2022-08-28T03:29:54.255Z,19.30
2022-08-28T03:32:21.064Z,19.23
2022-08-28T03:34:47.896Z,19.15
2022-08-28T03:37:14.587Z,19.09
2022-08-28T03:39:41.419Z,19.10
2022-08-28T03:42:08.156Z,19.07
2022-08-28T03:44:38.350Z,19.02
2022-08-28T03:47:05.557Z,19.02
2022-08-28T03:49:32.497Z,19.01
2022-08-28T03:51:59.416Z,19.09
2022-08-28T03:54:26.247Z,19.23
2022-08-28T03:56:53.041Z,19.16
2022-08-28T03:59:19.817Z,19.14
2022-08-28T04:01:46.791Z,19.16
2022-08-28T04:04:13.624Z,19.14
2022-08-28T04:06:41.509Z,19.10
2022-08-28T04:09:08.332Z,19.13
2022-08-28T04:11:40.501Z,19.13
2022-08-28T04:14:07.330Z,19.11
2022-08-28T04:16:34.323Z,19.12
2022-08-28T04:19:01.100Z,19.12
2022-08-28T04:21:27.950Z,19.21
2022-08-28T04:23:55.843Z,19.19
2022-08-28T04:26:25.411Z,19.23
2022-08-28T04:28:52.751Z,19.15
2022-08-28T04:31:32.066Z,19.21
2022-08-28T04:34:02.014Z,19.14
2022-08-28T04:36:29.353Z,19.28
2022-08-28T04:38:58.083Z,19.36
2022-08-28T04:41:24.943Z,19.47
2022-08-28T04:43:51.763Z,19.48
2022-08-28T04:46:18.795Z,19.52
2022-08-28T04:48:45.677Z,19.47
2022-08-28T04:51:14.015Z,19.56
2022-08-28T04:53:41.467Z,19.53
2022-08-28T04:56:12.032Z,19.54
2022-08-28T04:58:41.070Z,19.50
2022-08-28T05:01:11.144Z,19.64
2022-08-28T05:03:39.006Z,19.74
2022-08-28T05:06:06.159Z,19.80
2022-08-28T05:08:33.267Z,19.85
2022-08-28T05:11:13.867Z,19.87
2022-08-28T05:13:59.516Z,19.80
2022-08-28T05:16:26.746Z,19.68
2022-08-28T05:18:53.530Z,19.63
2022-08-28T05:21:22.797Z,19.55
2022-08-28T05:23:53.284Z,19.58
2022-08-28T05:26:20.399Z,19.74
2022-08-28T05:28:48.301Z,19.78
2022-08-28T05:31:18.401Z,19.77
2022-08-28T05:33:46.393Z,19.77
2022-08-28T05:36:14.564Z,19.72
2022-08-28T05:38:42.044Z,19.66
2022-08-28T05:41:09.091Z,19.61
2022-08-28T05:43:36.885Z,19.59
2022-08-28T05:46:08.172Z,19.55
2022-08-28T05:48:38.328Z,19.53
2022-08-28T05:51:12.931Z,19.49
2022-08-28T05:53:42.005Z,19.47
2022-08-28T05:56:15.027Z,19.47
2022-08-28T05:58:42.626Z,19.48
2022-08-28T06:01:22.317Z,19.52
2022-08-28T06:03:55.635Z,19.52
2022-08-28T06:06:23.627Z,19.54
2022-08-28T06:08:58.085Z,19.55
2022-08-28T06:11:30.344Z,19.55
2022-08-28T06:14:02.524Z,19.58
2022-08-28T06:16:31.750Z,19.60
2022-08-28T06:19:00.224Z,19.62
2022-08-28T06:21:27.131Z,19.63
2022-08-28T06:23:53.969Z,19.64
2022-08-28T06:26:21.059Z,19.63
2022-08-28T06:28:48.100Z,19.67
2022-08-28T06:31:24.301Z,19.71
2022-08-28T06:33:53.548Z,19.74
2022-08-28T06:36:20.326Z,19.77
2022-08-28T06:38:47.101Z,19.78
2022-08-28T06:41:14.422Z,19.79
2022-08-28T06:43:41.281Z,19.84
2022-08-28T06:46:08.318Z,19.89
2022-08-28T06:48:35.233Z,19.94
2022-08-28T06:51:07.182Z,19.98
2022-08-28T06:53:34.364Z,20.04
2022-08-28T06:56:09.690Z,20.09
2022-08-28T06:58:38.483Z,20.11
2022-08-28T07:01:07.910Z,20.22
2022-08-28T07:03:34.785Z,20.25
2022-08-28T07:06:03.195Z,20.33
2022-08-28T07:08:30.816Z,20.42
2022-08-28T07:10:58.016Z,20.50
2022-08-28T07:13:25.289Z,20.53
2022-08-28T07:15:52.462Z,20.58
2022-08-28T07:18:19.258Z,20.57
2022-08-28T07:20:54.889Z,20.55
2022-08-28T07:23:21.647Z,20.59
2022-08-28T07:25:48.403Z,20.62
2022-08-28T07:28:15.233Z,20.62
2022-08-28T07:30:42.171Z,20.63
2022-08-28T07:33:09.018Z,20.62
2022-08-28T07:35:35.867Z,20.64
2022-08-28T07:38:02.693Z,20.65
2022-08-28T07:40:31.162Z,20.67
2022-08-28T07:42:57.971Z,20.68
2022-08-28T07:45:24.841Z,20.69
2022-08-28T07:47:51.719Z,20.72
2022-08-28T07:50:18.610Z,20.72
2022-08-28T07:52:45.410Z,20.73
2022-08-28T07:55:12.264Z,20.75
2022-08-28T07:57:39.074Z,20.76
2022-08-28T08:00:07.045Z,20.80
2022-08-28T08:02:38.468Z,20.85
2022-08-28T08:05:05.689Z,20.90
2022-08-28T08:07:32.566Z,20.95
2022-08-28T08:09:59.419Z,21.05
2022-08-28T08:12:27.906Z,21.09
2022-08-28T08:14:56.755Z,21.13
2022-08-28T08:17:23.518Z,21.16
2022-08-28T08:19:50.311Z,21.21
2022-08-28T08:22:17.188Z,21.21
2022-08-28T08:24:43.910Z,21.25
2022-08-28T08:27:10.727Z,21.24
2022-08-28T08:29:38.227Z,21.21
2022-08-28T08:32:08.290Z,21.21
2022-08-28T08:34:37.556Z,21.20
2022-08-28T08:37:04.707Z,21.19
2022-08-28T08:39:32.852Z,21.18
2022-08-28T08:42:02.774Z,21.18
2022-08-28T08:44:40.044Z,21.12
2022-08-28T08:47:26.605Z,21.03
2022-08-28T08:50:01.004Z,20.95
2022-08-28T08:52:57.137Z,20.90
2022-08-28T08:55:34.555Z,20.88
2022-08-28T08:58:09.447Z,20.89
2022-08-28T09:01:11.495Z,20.88
2022-08-28T09:03:44.282Z,20.90
2022-08-28T09:06:35.787Z,20.98
2022-08-28T09:09:07.698Z,21.02
2022-08-28T09:11:56.387Z,21.07
2022-08-28T09:14:33.370Z,21.08
2022-08-28T09:17:01.772Z,21.11
2022-08-28T09:19:29.952Z,21.09
2022-08-28T09:21:57.302Z,21.15
2022-08-28T09:24:30.400Z,21.18
2022-08-28T09:27:11.171Z,21.24
2022-08-28T09:29:42.516Z,21.31
2022-08-28T09:32:41.191Z,21.35
2022-08-28T09:35:30.144Z,21.42
2022-08-28T09:38:17.394Z,21.47
2022-08-28T09:40:44.483Z,21.44
2022-08-28T09:43:17.448Z,21.51
2022-08-28T09:45:45.609Z,21.61
2022-08-28T09:48:43.598Z,21.63
2022-08-28T09:51:11.826Z,21.75
2022-08-28T09:53:52.777Z,21.82
2022-08-28T09:56:34.918Z,21.90
2022-08-28T09:59:12.302Z,21.96
2022-08-28T10:01:45.231Z,22.02
2022-08-28T10:04:36.391Z,22.04
2022-08-28T10:07:40.757Z,22.06
2022-08-28T10:10:20.917Z,22.10
2022-08-28T10:13:09.165Z,22.10
2022-08-28T10:16:19.206Z,22.07
2022-08-28T10:18:55.033Z,22.08
2022-08-28T10:21:36.010Z,22.19
2022-08-28T10:24:24.761Z,22.23
2022-08-28T10:27:16.237Z,22.20
2022-08-28T10:30:12.987Z,22.21
2022-08-28T10:32:46.089Z,22.20
2022-08-28T10:35:24.461Z,22.29
2022-08-28T10:38:23.611Z,22.20
2022-08-28T10:40:54.563Z,22.08
2022-08-28T10:43:31.810Z,22.03
2022-08-28T10:46:05.829Z,21.95
2022-08-28T10:48:41.690Z,21.83
2022-08-28T10:51:35.407Z,21.71
2022-08-28T10:54:20.134Z,21.80
2022-08-28T10:57:06.572Z,21.86
2022-08-28T10:59:34.719Z,21.95
2022-08-28T11:02:13.796Z,22.03
2022-08-28T11:04:40.907Z,22.15
2022-08-28T11:07:16.160Z,22.27
2022-08-28T11:09:48.445Z,22.46
2022-08-28T11:12:18.166Z,22.55
2022-08-28T11:14:48.818Z,22.57
2022-08-28T11:17:22.099Z,22.65
2022-08-28T11:20:09.946Z,22.68
2022-08-28T11:22:38.677Z,22.69
2022-08-28T11:25:34.837Z,22.76
2022-08-28T11:28:17.936Z,22.84
2022-08-28T11:30:48.103Z,22.88
2022-08-28T11:33:43.097Z,22.89
2022-08-28T11:36:31.799Z,22.88
2022-08-28T11:39:13.689Z,22.87
2022-08-28T11:42:20.754Z,22.99
2022-08-28T11:44:47.616Z,23.06
2022-08-28T11:47:43.252Z,23.09
2022-08-28T11:50:20.843Z,23.11
2022-08-28T11:53:00.051Z,23.18
2022-08-28T11:55:50.722Z,23.27
2022-08-28T11:58:26.145Z,23.29
2022-08-28T12:01:04.692Z,23.35
2022-08-28T12:03:55.164Z,23.50
2022-08-28T12:06:46.464Z,23.50
2022-08-28T12:09:36.143Z,23.51
2022-08-28T12:12:06.317Z,23.58
2022-08-28T12:14:35.829Z,23.57
2022-08-28T12:17:05.346Z,23.55
2022-08-28T12:19:55.535Z,23.58
2022-08-28T12:22:42.925Z,23.60
2022-08-28T12:25:36.141Z,23.58
2022-08-28T12:28:54.114Z,23.57
2022-08-28T12:31:29.699Z,23.46
2022-08-28T12:34:04.269Z,23.52
2022-08-28T12:36:32.602Z,23.58
2022-08-28T12:38:59.596Z,23.67
2022-08-28T12:41:27.971Z,23.62
2022-08-28T12:43:58.592Z,23.64
2022-08-28T12:46:37.185Z,23.59
2022-08-28T12:49:25.439Z,23.60
2022-08-28T12:52:26.278Z,23.68
2022-08-28T12:54:54.312Z,23.67
2022-08-28T12:57:24.433Z,23.76
2022-08-28T12:59:54.509Z,23.71
2022-08-28T13:02:30.699Z,23.71
2022-08-28T13:05:07.510Z,23.76
2022-08-28T13:07:35.730Z,23.80
2022-08-28T13:10:25.053Z,23.86
2022-08-28T13:13:05.188Z,23.87
2022-08-28T13:16:05.209Z,23.91
2022-08-28T13:18:39.044Z,23.97
2022-08-28T13:21:17.856Z,23.99
2022-08-28T13:24:20.846Z,23.95
2022-08-28T13:26:49.575Z,24.02
2022-08-28T13:29:24.414Z,24.01
2022-08-28T13:32:17.897Z,24.03
2022-08-28T13:35:05.258Z,24.15
2022-08-28T13:37:52.278Z,24.20
2022-08-28T13:43:14.996Z,24.21
2022-08-28T13:45:44.661Z,24.14
2022-08-28T13:48:13.298Z,24.13
2022-08-28T13:50:43.911Z,24.08
2022-08-28T13:53:15.339Z,24.01
2022-08-28T13:55:42.449Z,23.98
2022-08-28T13:58:09.253Z,23.93
2022-08-28T14:00:41.019Z,23.90
2022-08-28T14:03:07.874Z,23.87
2022-08-28T14:05:34.710Z,23.82
2022-08-28T14:08:01.591Z,23.78
2022-08-28T14:10:28.385Z,23.69
2022-08-28T14:12:55.283Z,23.61
2022-08-28T14:15:22.095Z,23.58
2022-08-28T14:17:49.114Z,23.57
2022-08-28T14:20:16.185Z,23.54
2022-08-28T14:22:43.089Z,23.50
2022-08-28T14:25:10.870Z,23.45
2022-08-28T14:27:37.842Z,23.49
2022-08-28T14:30:07.935Z,23.47
2022-08-28T14:32:35.816Z,23.55
2022-08-28T14:35:05.586Z,23.59
2022-08-28T14:37:32.615Z,23.57
2022-08-28T14:39:59.572Z,23.57
2022-08-28T14:42:26.479Z,23.56
2022-08-28T14:44:54.211Z,23.53
2022-08-28T14:47:21.077Z,23.49
2022-08-28T14:49:47.961Z,23.41
2022-08-28T14:52:15.424Z,23.35
2022-08-28T14:54:42.316Z,23.32
2022-08-28T14:57:09.277Z,23.30
2022-08-28T14:59:36.051Z,23.34
2022-08-28T15:02:02.939Z,23.35
2022-08-28T15:04:32.712Z,23.34
2022-08-28T15:07:00.692Z,23.34
2022-08-28T15:09:28.277Z,23.34
2022-08-28T15:11:55.286Z,23.29
2022-08-28T15:14:22.123Z,23.27
2022-08-28T15:16:49.180Z,23.25
2022-08-28T15:19:17.820Z,23.23
2022-08-28T15:21:51.032Z,23.22
2022-08-28T15:24:21.116Z,23.24
2022-08-28T15:26:48.114Z,23.28
2022-08-28T15:29:15.516Z,23.34
2022-08-28T15:31:45.759Z,23.38
2022-08-28T15:34:17.297Z,23.52
2022-08-28T15:36:45.388Z,23.56
2022-08-28T15:39:21.445Z,23.63
2022-08-28T15:41:48.346Z,23.59
2022-08-28T15:44:15.252Z,23.64
2022-08-28T15:46:42.005Z,23.64
2022-08-28T15:49:09.581Z,23.69
2022-08-28T15:51:37.446Z,23.70
2022-08-28T15:54:04.949Z,23.74
2022-08-28T15:56:31.728Z,23.77
2022-08-28T15:58:58.568Z,23.71
2022-08-28T16:01:25.427Z,23.68
2022-08-28T16:03:52.311Z,23.64
2022-08-28T16:06:21.060Z,23.65
2022-08-28T16:08:48.904Z,23.58
2022-08-28T16:11:18.361Z,23.57
2022-08-28T16:13:45.501Z,23.56
2022-08-28T16:16:13.195Z,23.36
2022-08-28T16:18:40.601Z,23.27
2022-08-28T16:21:08.029Z,23.26
2022-08-28T16:23:35.274Z,23.13
2022-08-28T16:26:02.635Z,23.00
2022-08-28T16:28:30.244Z,22.76
2022-08-28T16:30:57.439Z,22.63
2022-08-28T16:33:24.768Z,22.55
2022-08-28T16:35:56.162Z,22.42
2022-08-28T16:38:23.783Z,22.34
2022-08-28T16:40:50.768Z,22.16
2022-08-28T16:43:17.616Z,22.05
2022-08-28T16:45:46.327Z,22.01
2022-08-28T16:48:15.152Z,21.98
2022-08-28T16:50:44.166Z,21.94
2022-08-28T16:53:12.026Z,21.88
2022-08-28T16:55:39.605Z,21.87
2022-08-28T16:58:07.503Z,21.85
2022-08-28T17:00:34.576Z,21.83
2022-08-28T17:03:11.432Z,21.78
2022-08-28T17:05:38.348Z,21.76
2022-08-28T17:08:05.329Z,21.75
2022-08-28T17:10:32.297Z,21.66
2022-08-28T17:12:59.156Z,21.62
2022-08-28T17:15:26.469Z,21.56
2022-08-28T17:17:53.269Z,21.49
2022-08-28T17:20:20.191Z,21.42
2022-08-28T17:22:47.054Z,21.31
2022-08-28T17:25:14.003Z,21.27
2022-08-28T17:27:41.776Z,21.27
2022-08-28T17:30:10.274Z,21.22
2022-08-28T17:32:37.282Z,21.25
2022-08-28T17:35:04.701Z,21.18
2022-08-28T17:37:31.693Z,21.02
2022-08-28T17:39:58.715Z,20.90
2022-08-28T17:42:25.842Z,20.81
2022-08-28T17:44:53.065Z,20.67
2022-08-28T17:47:21.736Z,20.70
2022-08-28T17:49:54.725Z,20.73
2022-08-28T17:52:21.869Z,20.71
2022-08-28T17:54:49.086Z,20.70
2022-08-28T17:57:16.111Z,20.65
2022-08-28T17:59:43.355Z,20.59
2022-08-28T18:02:10.736Z,20.58
2022-08-28T18:04:38.114Z,20.58
2022-08-28T18:07:05.386Z,20.55
2022-08-28T18:09:32.525Z,20.51
2022-08-28T18:11:59.497Z,20.49
2022-08-28T18:14:26.821Z,20.51
2022-08-28T18:16:54.175Z,20.52
2022-08-28T18:19:21.301Z,20.56
2022-08-28T18:21:48.630Z,20.62
2022-08-28T18:24:16.100Z,20.65
2022-08-28T18:26:44.551Z,20.71
2022-08-28T18:29:12.472Z,20.76
2022-08-28T18:31:40.530Z,20.80
2022-08-28T18:34:08.799Z,20.84
2022-08-28T18:36:37.063Z,20.87
2022-08-28T18:39:04.841Z,20.87
2022-08-28T18:41:43.118Z,20.87
2022-08-28T18:44:13.135Z,20.87
2022-08-28T18:46:40.821Z,20.86
2022-08-28T18:49:08.172Z,20.87
2022-08-28T18:51:35.707Z,20.88
2022-08-28T18:54:03.249Z,20.86
2022-08-28T18:56:32.010Z,20.86
2022-08-28T18:58:59.595Z,20.88
2022-08-28T19:01:27.179Z,20.86
2022-08-28T19:03:56.255Z,20.84
2022-08-28T19:06:24.813Z,20.76
2022-08-28T19:08:52.288Z,20.74
2022-08-28T19:11:19.927Z,20.66
2022-08-28T19:13:47.501Z,20.64
2022-08-28T19:16:20.115Z,20.61
2022-08-28T19:18:47.896Z,20.58
2022-08-28T19:21:19.713Z,20.50
2022-08-28T19:23:56.141Z,20.50
2022-08-28T19:26:25.684Z,20.51
2022-08-28T19:28:53.107Z,20.50
2022-08-28T19:31:20.540Z,20.46
2022-08-28T19:33:48.382Z,20.47
2022-08-28T19:36:16.323Z,20.49
2022-08-28T19:38:45.534Z,20.47
2022-08-28T19:41:14.600Z,20.49
2022-08-28T19:43:43.272Z,20.47
2022-08-28T19:46:19.477Z,20.48
2022-08-28T19:48:49.250Z,20.46
2022-08-28T19:51:22.641Z,20.46
2022-08-28T19:53:56.729Z,20.44
2022-08-28T19:56:27.560Z,20.38
2022-08-28T19:58:56.245Z,20.37
2022-08-28T20:01:23.932Z,20.34
2022-08-28T20:03:51.319Z,20.29
2022-08-28T20:06:18.478Z,20.24
2022-08-28T20:08:45.813Z,20.20
2022-08-28T20:11:21.342Z,20.15
2022-08-28T20:13:48.572Z,20.13
2022-08-28T20:16:16.035Z,20.12
2022-08-28T20:18:43.320Z,20.09
2022-08-28T20:21:11.981Z,20.09
2022-08-28T20:23:39.764Z,20.08
2022-08-28T20:26:09.442Z,20.11
2022-08-28T20:28:37.085Z,20.09
2022-08-28T20:31:12.019Z,20.11
2022-08-28T20:33:39.770Z,20.10
2022-08-28T20:36:07.754Z,20.11
2022-08-28T20:38:43.404Z,20.11
2022-08-28T20:41:17.449Z,20.08
2022-08-28T20:43:45.329Z,20.05
2022-08-28T20:46:14.104Z,20.04
2022-08-28T20:48:40.935Z,20.01
2022-08-28T20:51:08.796Z,20.01
2022-08-28T20:53:37.876Z,19.99
2022-08-28T20:56:09.009Z,20.00
2022-08-28T20:58:36.916Z,20.02
2022-08-28T21:01:03.890Z,19.99
2022-08-28T21:03:30.790Z,19.95
2022-08-28T21:05:57.564Z,19.96
2022-08-28T21:08:24.443Z,19.98
2022-08-28T21:10:51.703Z,19.97
2022-08-28T21:13:18.784Z,19.99
2022-08-28T21:15:45.630Z,20.00
2022-08-28T21:18:12.486Z,19.97
2022-08-28T21:20:39.872Z,19.99
2022-08-28T21:23:06.693Z,19.99
2022-08-28T21:25:33.623Z,19.99
2022-08-28T21:28:09.267Z,20.03
2022-08-28T21:30:36.230Z,20.04
2022-08-28T21:33:03.259Z,20.03
2022-08-28T21:35:30.016Z,20.00
2022-08-28T21:37:56.865Z,19.98
2022-08-28T21:40:23.724Z,19.96
2022-08-28T21:42:50.548Z,19.92
2022-08-28T21:45:17.485Z,19.90
2022-08-28T21:47:45.186Z,19.87
2022-08-28T21:50:13.407Z,19.80
2022-08-28T21:52:40.659Z,19.77
2022-08-28T21:55:12.179Z,19.75
2022-08-28T21:57:39.604Z,19.72
2022-08-28T22:00:15.482Z,19.69
2022-08-28T22:02:42.512Z,19.66
2022-08-28T22:05:11.771Z,19.62
2022-08-28T22:07:39.364Z,19.62
2022-08-28T22:10:08.264Z,19.63
2022-08-28T22:12:35.677Z,19.60
2022-08-28T22:15:02.444Z,19.59
2022-08-28T22:17:29.301Z,19.59
2022-08-28T22:19:56.079Z,19.58
2022-08-28T22:22:22.959Z,19.57
2022-08-28T22:24:49.847Z,19.55
2022-08-28T22:27:16.627Z,19.55
2022-08-28T22:29:43.409Z,19.53
2022-08-28T22:32:10.936Z,19.54
2022-08-28T22:34:41.316Z,19.53
2022-08-28T22:37:09.717Z,19.50
2022-08-28T22:39:36.510Z,19.48
2022-08-28T22:42:03.372Z,19.47
2022-08-28T22:44:30.190Z,19.49
2022-08-28T22:46:57.142Z,19.50
2022-08-28T22:49:25.043Z,19.49
2022-08-28T22:51:51.867Z,19.53
2022-08-28T22:54:18.793Z,19.54
2022-08-28T22:56:45.770Z,19.54
2022-08-28T22:59:12.645Z,19.50
2022-08-28T23:01:39.662Z,19.46
2022-08-28T23:04:06.630Z,19.46
2022-08-28T23:06:33.431Z,19.48
2022-08-28T23:09:00.352Z,19.49
2022-08-28T23:11:27.142Z,19.51
2022-08-28T23:13:53.985Z,19.46
2022-08-28T23:16:20.871Z,19.44
2022-08-28T23:19:07.482Z,19.45
2022-08-28T23:21:34.615Z,19.43
2022-08-28T23:24:06.068Z,19.48
2022-08-28T23:26:32.973Z,19.49
2022-08-28T23:29:00.066Z,19.49
2022-08-28T23:31:27.002Z,19.47
2022-08-28T23:33:54.211Z,19.47
2022-08-28T23:36:22.739Z,19.49
2022-08-28T23:38:50.169Z,19.50
2022-08-28T23:41:18.998Z,19.52
2022-08-28T23:43:46.028Z,19.55
2022-08-28T23:46:17.302Z,19.54
2022-08-28T23:48:44.231Z,19.54
2022-08-28T23:51:14.519Z,19.53
2022-08-28T23:53:43.341Z,19.53
2022-08-28T23:56:11.557Z,19.51
2022-08-28T23:58:43.149Z,19.48
